createdAt,value
2022-08-03T00:00:56.984Z,80.57
2022-08-03T00:03:25.018Z,80.62
2022-08-03T00:06:03.808Z,80.43
2022-08-03T00:08:33.364Z,80.44
2022-08-03T00:11:08.251Z,80.61
2022-08-03T00:13:36.363Z,81.00
2022-08-03T00:16:05.549Z,80.92
2022-08-03T00:18:33.537Z,80.74
2022-08-03T00:21:01.569Z,80.29
2022-08-03T00:23:51.355Z,80.16
2022-08-03T00:26:17.905Z,79.98
2022-08-03T00:28:49.251Z,80.13
2022-08-03T00:31:27.755Z,79.90
2022-08-03T00:34:06.020Z,79.86
2022-08-03T00:36:34.948Z,79.76
2022-08-03T00:39:02.953Z,79.45
2022-08-03T00:41:33.228Z,79.14
2022-08-03T00:44:01.357Z,78.94
2022-08-03T00:46:29.321Z,78.73
2022-08-03T00:48:57.534Z,78.21
2022-08-03T00:51:26.100Z,78.33
2022-08-03T00:53:54.170Z,78.03
2022-08-03T00:56:34.561Z,77.76
2022-08-03T00:59:04.147Z,76.61
2022-08-03T01:01:32.725Z,76.29
2022-08-03T01:04:03.296Z,75.64
2022-08-03T01:06:46.845Z,74.86
2022-08-03T01:09:27.860Z,74.12
2022-08-03T01:12:15.642Z,73.56
2022-08-03T01:14:52.892Z,72.80
2022-08-03T01:17:28.012Z,72.07
2022-08-03T01:20:12.096Z,71.72
2022-08-03T01:23:01.608Z,71.26
2022-08-03T01:26:02.735Z,71.02
2022-08-03T01:29:09.660Z,70.46
2022-08-03T01:33:02.687Z,69.86
2022-08-03T01:34:42.356Z,69.07
2022-08-03T01:37:14.002Z,69.14
2022-08-03T01:39:43.764Z,68.93
2022-08-03T01:42:14.971Z,68.49
2022-08-03T01:44:50.494Z,68.15
2022-08-03T01:47:22.223Z,67.66
2022-08-03T01:49:53.142Z,66.71
2022-08-03T01:52:22.456Z,66.21
2022-08-03T01:54:53.679Z,65.71
2022-08-03T01:57:25.925Z,65.12
2022-08-03T01:59:56.653Z,64.65
2022-08-03T02:02:33.102Z,64.22
2022-08-03T02:05:10.921Z,64.00
2022-08-03T02:07:42.639Z,63.73
2022-08-03T02:10:15.094Z,62.99
2022-08-03T02:12:46.363Z,62.81
2022-08-03T02:15:17.310Z,62.60
2022-08-03T02:17:50.825Z,62.62
2022-08-03T02:20:20.123Z,62.89
2022-08-03T02:22:49.001Z,62.71
2022-08-03T02:25:17.820Z,62.37
2022-08-03T02:28:27.415Z,61.80
2022-08-03T02:30:59.622Z,61.04
2022-08-03T02:33:42.022Z,61.28
2022-08-03T02:36:15.778Z,60.90
2022-08-03T02:38:46.737Z,60.12
2022-08-03T02:41:22.451Z,59.43
2022-08-03T02:44:05.889Z,59.36
2022-08-03T02:46:41.554Z,59.04
2022-08-03T02:49:40.790Z,58.96
2022-08-03T02:52:02.779Z,59.19
2022-08-03T02:54:31.386Z,59.44
2022-08-03T02:57:00.977Z,59.20
2022-08-03T02:59:33.807Z,58.63
2022-08-03T03:02:03.122Z,58.07
2022-08-03T03:04:33.148Z,57.40
2022-08-03T03:07:04.355Z,56.66
2022-08-03T03:09:41.787Z,56.19
2022-08-03T03:12:16.335Z,55.67
2022-08-03T03:14:44.651Z,55.23
2022-08-03T03:17:15.457Z,54.54
2022-08-03T03:20:05.927Z,54.57
2022-08-03T03:22:36.087Z,54.56
2022-08-03T03:25:05.094Z,54.28
2022-08-03T03:27:35.632Z,54.44
2022-08-03T03:30:05.424Z,53.67
2022-08-03T03:32:33.570Z,52.83
2022-08-03T03:35:02.138Z,51.95
2022-08-03T03:37:31.288Z,52.03
2022-08-03T03:39:59.387Z,52.04
2022-08-03T03:42:27.805Z,52.04
2022-08-03T03:44:55.846Z,51.70
2022-08-03T03:47:32.861Z,51.64
2022-08-03T03:50:02.542Z,51.21
2022-08-03T03:52:33.281Z,51.81
2022-08-03T03:55:01.858Z,51.47
2022-08-03T03:57:32.074Z,51.63
2022-08-03T04:00:00.137Z,51.85
2022-08-03T04:02:28.804Z,51.61
2022-08-03T04:05:15.477Z,51.71
2022-08-03T04:08:18.703Z,52.17
2022-08-03T04:11:14.303Z,52.58
2022-08-03T04:14:09.631Z,53.56
2022-08-03T04:16:47.958Z,54.00
2022-08-03T04:19:31.163Z,54.09
2022-08-03T04:22:04.272Z,54.11
2022-08-03T04:24:36.760Z,54.86
2022-08-03T04:27:10.271Z,55.37
2022-08-03T04:29:48.171Z,55.53
2022-08-03T04:32:18.693Z,54.42
2022-08-03T04:34:47.187Z,53.33
2022-08-03T04:37:48.571Z,52.97
2022-08-03T04:40:22.775Z,52.83
2022-08-03T04:42:54.830Z,53.22
2022-08-03T04:45:23.731Z,53.50
2022-08-03T04:47:53.757Z,53.91
2022-08-03T04:50:25.179Z,54.18
2022-08-03T04:52:53.197Z,54.33
2022-08-03T04:55:34.146Z,54.46
2022-08-03T04:58:04.461Z,54.99
2022-08-03T05:00:32.831Z,55.57
2022-08-03T05:03:01.042Z,55.87
2022-08-03T05:05:50.649Z,56.52
2022-08-03T05:08:27.604Z,56.41
2022-08-03T05:10:59.148Z,56.04
2022-08-03T05:13:28.785Z,55.81
2022-08-03T05:15:57.003Z,54.73
2022-08-03T05:18:25.128Z,53.62
2022-08-03T05:20:55.242Z,52.83
2022-08-03T05:23:41.977Z,51.45
2022-08-03T05:26:13.998Z,50.45
2022-08-03T05:28:50.632Z,49.30
2022-08-03T05:31:20.191Z,49.39
2022-08-03T05:33:49.932Z,50.09
2022-08-03T05:36:18.008Z,49.86
2022-08-03T05:38:46.069Z,49.78
2022-08-03T05:41:22.032Z,49.28
2022-08-03T05:43:54.510Z,48.67
2022-08-03T05:46:26.045Z,48.09
2022-08-03T05:48:55.019Z,47.42
2022-08-03T05:51:23.309Z,47.32
2022-08-03T05:53:52.594Z,47.82
2022-08-03T05:56:25.521Z,48.35
2022-08-03T05:58:54.347Z,48.84
2022-08-03T06:01:23.228Z,48.59
2022-08-03T06:06:37.760Z,48.26
2022-08-03T06:09:06.560Z,48.58
2022-08-03T06:11:35.259Z,48.12
2022-08-03T06:14:05.086Z,48.68
2022-08-03T06:16:34.385Z,49.18
2022-08-03T06:19:03.014Z,49.19
2022-08-03T06:21:31.197Z,49.01
2022-08-03T06:23:59.175Z,49.49
2022-08-03T06:26:28.489Z,50.29
2022-08-03T06:28:57.048Z,50.50
2022-08-03T06:31:33.334Z,50.07
2022-08-03T06:34:34.697Z,50.07
2022-08-03T06:37:01.321Z,50.29
2022-08-03T06:39:31.534Z,50.20
2022-08-03T06:41:59.779Z,49.96
2022-08-03T06:44:27.825Z,50.15
2022-08-03T06:46:58.129Z,50.27
2022-08-03T06:49:26.477Z,50.48
2022-08-03T06:52:04.223Z,50.59
2022-08-03T06:54:35.727Z,50.71
2022-08-03T06:57:04.328Z,51.02
2022-08-03T07:00:10.363Z,50.98
2022-08-03T07:02:22.159Z,51.23
2022-08-03T07:04:51.186Z,50.84
2022-08-03T07:07:21.211Z,50.45
2022-08-03T07:09:56.693Z,50.09
2022-08-03T07:12:28.404Z,49.36
2022-08-03T07:15:02.909Z,49.22
2022-08-03T07:18:11.082Z,49.52
2022-08-03T07:20:40.293Z,49.43
2022-08-03T07:23:08.415Z,49.79
2022-08-03T07:25:36.784Z,49.70
2022-08-03T07:28:05.540Z,48.74
2022-08-03T07:30:33.745Z,47.62
2022-08-03T07:33:01.826Z,48.23
2022-08-03T07:35:30.882Z,46.94
2022-08-03T07:37:58.866Z,45.49
2022-08-03T07:40:42.081Z,45.46
2022-08-03T07:43:14.955Z,44.70
2022-08-03T07:45:43.091Z,44.27
2022-08-03T07:48:12.565Z,43.80
2022-08-03T07:50:43.860Z,42.93
2022-08-03T07:53:11.851Z,43.39
2022-08-03T07:55:39.962Z,42.25
2022-08-03T07:58:12.900Z,41.89
2022-08-03T08:00:40.956Z,41.65
2022-08-03T08:03:09.158Z,41.70
2022-08-03T08:05:38.398Z,42.53
2022-08-03T08:08:06.637Z,43.79
2022-08-03T08:10:34.896Z,44.82
2022-08-03T08:13:05.035Z,45.72
2022-08-03T08:15:33.405Z,45.81
2022-08-03T08:18:03.158Z,46.25
2022-08-03T08:20:37.989Z,47.16
2022-08-03T08:23:19.288Z,47.53
2022-08-03T08:25:58.124Z,47.59
2022-08-03T08:28:32.731Z,47.66
2022-08-03T08:31:02.818Z,47.37
2022-08-03T08:36:20.154Z,46.46
2022-08-03T08:38:48.544Z,46.88
2022-08-03T08:41:18.281Z,47.64
2022-08-03T08:43:46.483Z,47.62
2022-08-03T08:46:23.298Z,47.13
2022-08-03T08:48:55.652Z,46.88
2022-08-03T08:51:54.518Z,47.23
2022-08-03T08:54:23.789Z,46.73
2022-08-03T08:56:54.327Z,47.18
2022-08-03T08:59:25.021Z,47.73
2022-08-03T09:01:59.816Z,48.29
2022-08-03T09:04:30.291Z,48.22
2022-08-03T09:07:17.970Z,48.34
2022-08-03T09:10:05.321Z,48.50
2022-08-03T09:12:47.006Z,48.36
2022-08-03T09:15:28.200Z,48.67
2022-08-03T09:17:58.651Z,48.12
2022-08-03T09:20:34.017Z,47.88
2022-08-03T09:23:44.685Z,47.00
2022-08-03T09:26:00.344Z,45.76
2022-08-03T09:28:59.800Z,45.96
2022-08-03T09:31:39.027Z,46.66
2022-08-03T09:34:16.961Z,47.31
2022-08-03T09:36:51.065Z,47.89
2022-08-03T09:39:41.264Z,48.39
2022-08-03T09:42:18.751Z,48.50
2022-08-03T09:44:53.065Z,48.23
2022-08-03T09:47:32.755Z,48.79
2022-08-03T09:50:02.683Z,49.04
2022-08-03T09:52:51.889Z,49.27
2022-08-03T09:56:30.945Z,49.22
2022-08-03T09:58:11.157Z,48.81
2022-08-03T10:01:07.166Z,48.49
2022-08-03T10:04:02.956Z,48.57
2022-08-03T10:06:31.104Z,48.73
2022-08-03T10:09:15.119Z,49.25
2022-08-03T10:11:45.477Z,48.91
2022-08-03T10:14:20.476Z,48.94
2022-08-03T10:16:49.914Z,48.55
2022-08-03T10:19:19.716Z,48.72
2022-08-03T10:21:54.459Z,48.60
2022-08-03T10:24:30.609Z,48.59
2022-08-03T10:27:04.592Z,49.28
2022-08-03T10:29:41.465Z,49.59
2022-08-03T10:32:22.756Z,50.42
2022-08-03T10:34:59.843Z,50.46
2022-08-03T10:37:35.599Z,51.00
2022-08-03T10:40:04.509Z,52.00
2022-08-03T10:42:33.807Z,53.17
2022-08-03T10:45:06.538Z,53.46
2022-08-03T10:47:37.783Z,52.16
2022-08-03T10:50:06.694Z,51.34
2022-08-03T10:52:38.274Z,52.19
2022-08-03T10:55:58.155Z,53.87
2022-08-03T10:58:56.900Z,54.11
2022-08-03T11:01:59.131Z,53.99
2022-08-03T11:04:30.468Z,54.12
2022-08-03T11:07:22.241Z,54.67
2022-08-03T11:09:55.777Z,54.75
2022-08-03T11:12:34.065Z,53.81
2022-08-03T11:15:05.783Z,52.54
2022-08-03T11:17:46.162Z,52.03
2022-08-03T11:20:55.888Z,51.78
2022-08-03T11:24:02.504Z,52.08
2022-08-03T11:26:31.330Z,52.05
2022-08-03T11:29:29.732Z,52.83
2022-08-03T11:32:00.277Z,52.90
2022-08-03T11:34:28.463Z,52.18
2022-08-03T11:37:30.182Z,52.52
2022-08-03T11:40:02.782Z,52.82
2022-08-03T11:42:36.706Z,53.76
2022-08-03T11:45:08.763Z,54.31
2022-08-03T11:47:50.916Z,54.29
2022-08-03T11:50:20.700Z,54.36
2022-08-03T11:52:49.715Z,54.34
2022-08-03T11:55:26.779Z,54.27
2022-08-03T11:59:16.954Z,54.51
2022-08-03T12:00:51.581Z,54.04
2022-08-03T12:03:20.625Z,54.02
2022-08-03T12:05:56.400Z,53.89
2022-08-03T12:08:35.039Z,54.14
2022-08-03T12:11:09.773Z,54.68
2022-08-03T12:14:05.774Z,55.20
2022-08-03T12:16:41.979Z,55.25
2022-08-03T12:19:10.296Z,55.84
2022-08-03T12:21:57.417Z,56.19
2022-08-03T12:24:30.768Z,56.25
2022-08-03T12:27:00.089Z,56.50
2022-08-03T12:29:29.150Z,57.09
2022-08-03T12:31:59.337Z,57.83
2022-08-03T12:34:50.003Z,57.36
2022-08-03T12:37:23.572Z,57.29
2022-08-03T12:40:02.107Z,57.02
2022-08-03T12:42:36.811Z,56.96
2022-08-03T12:45:27.235Z,57.54
2022-08-03T12:47:58.817Z,57.59
2022-08-03T12:50:47.463Z,57.65
2022-08-03T12:53:30.937Z,57.72
2022-08-03T12:56:06.584Z,57.55
2022-08-03T12:58:38.065Z,57.19
2022-08-03T13:01:10.448Z,57.20
2022-08-03T13:03:50.384Z,57.05
2022-08-03T13:06:27.629Z,57.61
2022-08-03T13:09:10.740Z,58.68
2022-08-03T13:11:55.745Z,58.79
2022-08-03T13:14:27.320Z,58.88
2022-08-03T13:16:55.343Z,59.18
2022-08-03T13:19:23.368Z,59.12
2022-08-03T13:22:04.234Z,59.80
2022-08-03T13:24:33.879Z,60.32
2022-08-03T13:28:01.340Z,60.83
2022-08-03T13:29:53.540Z,61.11
2022-08-03T13:32:22.507Z,61.12
2022-08-03T13:34:50.762Z,61.56
2022-08-03T13:37:18.833Z,61.27
2022-08-03T13:39:57.312Z,60.62
2022-08-03T13:42:35.461Z,61.06
2022-08-03T13:45:05.253Z,61.21
2022-08-03T13:47:33.424Z,60.99
2022-08-03T13:50:03.095Z,61.08
2022-08-03T13:52:37.308Z,61.18
2022-08-03T13:55:07.535Z,61.47
2022-08-03T13:58:04.186Z,61.62
2022-08-03T14:00:29.451Z,61.52
2022-08-03T14:03:05.086Z,61.27
2022-08-03T14:05:36.500Z,61.71
2022-08-03T14:08:06.810Z,62.10
2022-08-03T14:10:42.331Z,62.53
2022-08-03T14:13:12.763Z,62.68
2022-08-03T14:15:50.857Z,63.23
2022-08-03T14:18:28.523Z,63.70
2022-08-03T14:21:07.520Z,64.26
2022-08-03T14:23:38.210Z,64.51
2022-08-03T14:26:13.358Z,64.97
2022-08-03T14:28:42.090Z,65.17
2022-08-03T14:32:09.250Z,65.41
2022-08-03T14:33:59.170Z,65.68
2022-08-03T14:36:27.210Z,66.06
2022-08-03T14:38:59.412Z,66.31
2022-08-03T14:41:30.371Z,66.48
2022-08-03T14:44:00.403Z,67.10
2022-08-03T14:46:30.300Z,66.86
2022-08-03T14:50:34.053Z,67.08
2022-08-03T14:51:53.494Z,66.70
2022-08-03T14:54:24.569Z,66.88
2022-08-03T14:56:53.132Z,66.75
2022-08-03T14:59:21.227Z,66.74
2022-08-03T15:02:03.240Z,66.85
2022-08-03T15:07:21.230Z,66.99
2022-08-03T15:09:49.711Z,67.51
2022-08-03T15:12:19.461Z,67.55
2022-08-03T15:14:47.684Z,67.69
2022-08-03T15:17:15.704Z,68.14
2022-08-03T15:20:04.060Z,68.06
2022-08-03T15:22:34.784Z,68.13
2022-08-03T15:26:27.885Z,68.37
2022-08-03T15:28:03.076Z,68.38
2022-08-03T15:30:36.725Z,68.33
2022-08-03T15:33:15.145Z,68.59
2022-08-03T15:35:43.312Z,68.61
2022-08-03T15:38:11.331Z,68.64
2022-08-03T15:40:55.366Z,68.89
2022-08-03T15:43:24.745Z,69.53
2022-08-03T15:48:42.574Z,69.77
2022-08-03T15:51:12.065Z,70.18
2022-08-03T15:53:40.346Z,70.34
2022-08-03T15:56:14.333Z,70.54
2022-08-03T15:59:09.725Z,70.61
2022-08-03T16:01:34.470Z,70.88
2022-08-03T16:04:04.488Z,70.90
2022-08-03T16:06:35.998Z,71.13
2022-08-03T16:09:23.521Z,71.40
2022-08-03T16:11:58.189Z,71.31
2022-08-03T16:14:32.161Z,71.69
2022-08-03T16:17:01.846Z,71.83
2022-08-03T16:19:31.122Z,71.81
2022-08-03T16:21:59.295Z,71.85
2022-08-03T16:24:28.426Z,71.67
2022-08-03T16:26:58.462Z,71.94
2022-08-03T16:29:29.333Z,72.12
2022-08-03T16:31:57.504Z,72.48
2022-08-03T16:34:26.012Z,72.22
2022-08-03T16:36:55.374Z,72.44
2022-08-03T16:39:23.915Z,72.45
2022-08-03T16:42:01.284Z,71.98
2022-08-03T16:44:31.939Z,72.30
2022-08-03T16:47:00.732Z,72.38
2022-08-03T16:49:54.564Z,72.53
2022-08-03T16:52:17.976Z,72.66
2022-08-03T16:54:52.829Z,72.64
2022-08-03T16:57:29.915Z,73.03
2022-08-03T17:00:33.009Z,73.06
2022-08-03T17:03:04.318Z,73.42
2022-08-03T17:05:47.006Z,73.72
2022-08-03T17:08:18.912Z,73.59
2022-08-03T17:10:55.446Z,73.24
2022-08-03T17:13:39.417Z,73.80
2022-08-03T17:16:16.210Z,73.59
2022-08-03T17:19:06.446Z,73.88
2022-08-03T17:21:40.113Z,74.08
2022-08-03T17:24:20.961Z,73.69
2022-08-03T17:26:51.959Z,73.94
2022-08-03T17:29:23.123Z,74.04
2022-08-03T17:31:55.765Z,74.19
2022-08-03T17:34:26.534Z,74.58
2022-08-03T17:37:04.247Z,74.62
2022-08-03T17:42:30.569Z,74.70
2022-08-03T17:45:01.734Z,74.81
2022-08-03T17:47:41.972Z,75.00
2022-08-03T17:50:24.047Z,74.94
2022-08-03T17:53:14.424Z,75.31
2022-08-03T17:59:17.079Z,75.43
2022-08-03T18:03:05.964Z,75.19
2022-08-03T18:06:10.746Z,74.98
2022-08-03T18:08:32.293Z,74.91
2022-08-03T18:11:14.638Z,75.39
2022-08-03T18:13:57.780Z,75.24
2022-08-03T18:16:35.370Z,75.42
2022-08-03T18:19:13.764Z,75.74
2022-08-03T18:22:03.001Z,75.75
2022-08-03T18:24:32.788Z,75.61
2022-08-03T18:27:03.267Z,75.83
2022-08-03T18:29:31.792Z,76.01
2022-08-03T18:32:07.723Z,76.00
2022-08-03T18:34:53.565Z,76.10
2022-08-03T18:37:27.067Z,76.20
2022-08-03T18:39:58.739Z,76.41
2022-08-03T18:42:28.057Z,76.55
2022-08-03T18:45:14.912Z,76.47
2022-08-03T18:48:23.036Z,76.47
2022-08-03T18:51:06.830Z,76.44
2022-08-03T18:54:03.972Z,76.63
2022-08-03T18:56:45.314Z,76.58
2022-08-03T18:59:30.004Z,76.29
2022-08-03T19:02:09.118Z,76.72
2022-08-03T19:04:48.651Z,76.68
2022-08-03T19:07:26.906Z,76.76
2022-08-03T19:12:59.043Z,77.08
2022-08-03T19:15:36.516Z,76.47
2022-08-03T19:18:10.795Z,77.01
2022-08-03T19:20:39.385Z,76.60
2022-08-03T19:23:09.018Z,76.67
2022-08-03T19:25:41.463Z,76.97
2022-08-03T19:28:10.083Z,76.82
2022-08-03T19:30:40.695Z,76.92
2022-08-03T19:33:17.047Z,77.00
2022-08-03T19:35:55.154Z,77.33
2022-08-03T19:38:28.896Z,77.53
2022-08-03T19:41:04.718Z,77.61
2022-08-03T19:43:57.915Z,77.35
2022-08-03T19:46:31.087Z,77.69
2022-08-03T19:49:15.094Z,77.30
2022-08-03T19:54:53.357Z,77.24
2022-08-03T19:57:25.444Z,77.33
2022-08-03T19:59:59.369Z,77.23
2022-08-03T20:02:34.293Z,77.57
2022-08-03T20:05:02.397Z,77.89
2022-08-03T20:07:34.663Z,78.17
2022-08-03T20:10:05.925Z,77.61
2022-08-03T20:12:39.137Z,77.60
2022-08-03T20:15:11.930Z,77.70
2022-08-03T20:17:55.322Z,77.75
2022-08-03T20:20:38.975Z,77.35
2022-08-03T20:23:18.826Z,77.21
2022-08-03T20:25:57.292Z,77.51
2022-08-03T20:28:36.057Z,77.64
2022-08-03T20:31:25.127Z,77.68
2022-08-03T20:34:02.434Z,77.38
2022-08-03T20:36:30.737Z,77.42
2022-08-03T20:38:59.559Z,77.63
2022-08-03T20:41:27.913Z,77.62
2022-08-03T20:43:59.998Z,77.75
2022-08-03T20:46:32.162Z,78.15
2022-08-03T20:49:06.538Z,78.39
2022-08-03T20:51:50.278Z,78.19
2022-08-03T20:54:29.235Z,77.58
2022-08-03T20:57:04.226Z,77.74
2022-08-03T20:59:50.167Z,78.06
2022-08-03T21:02:29.718Z,77.78
2022-08-03T21:05:08.611Z,77.97
2022-08-03T21:08:05.392Z,77.51
2022-08-03T21:10:42.266Z,77.53
2022-08-03T21:13:01.457Z,76.74
2022-08-03T21:13:03.089Z,77.51
2022-08-03T21:13:04.438Z,75.14
2022-08-03T21:13:24.749Z,77.64
2022-08-03T21:16:11.386Z,77.36
2022-08-03T21:18:52.640Z,77.67
2022-08-03T21:21:23.952Z,77.47
2022-08-03T21:23:54.455Z,77.60
2022-08-03T21:26:25.172Z,77.78
2022-08-03T21:28:55.746Z,77.72
2022-08-03T21:31:27.083Z,77.75
2022-08-03T21:34:06.115Z,77.87
2022-08-03T21:36:38.323Z,77.87
2022-08-03T21:39:09.176Z,77.80
2022-08-03T21:41:42.989Z,77.91
2022-08-03T21:44:11.211Z,77.34
2022-08-03T21:46:41.849Z,77.85
2022-08-03T21:50:06.894Z,77.54
2022-08-03T21:52:06.627Z,77.44
2022-08-03T21:54:39.205Z,77.30
2022-08-03T21:57:18.748Z,77.33
2022-08-03T21:59:52.714Z,77.39
2022-08-03T22:02:31.347Z,77.09
2022-08-03T22:05:00.416Z,77.49
2022-08-03T22:07:34.895Z,77.26
2022-08-03T22:10:09.854Z,77.40
2022-08-03T22:12:38.739Z,77.69
2022-08-03T22:15:10.269Z,77.57
2022-08-03T22:17:55.757Z,77.55
2022-08-03T22:20:25.638Z,77.41
2022-08-03T22:22:57.345Z,77.34
2022-08-03T22:25:31.221Z,77.42
2022-08-03T22:28:02.772Z,77.35
2022-08-03T22:30:34.279Z,77.69
2022-08-03T22:33:04.498Z,77.55
2022-08-03T22:35:47.416Z,77.56
2022-08-03T22:38:16.663Z,78.06
2022-08-03T22:40:45.315Z,77.93
2022-08-03T22:43:13.346Z,77.77
2022-08-03T22:46:10.208Z,77.97
2022-08-03T22:48:40.951Z,78.01
2022-08-03T22:51:11.218Z,77.99
2022-08-03T22:53:40.719Z,77.93
2022-08-03T22:56:09.442Z,77.96
2022-08-03T22:58:38.432Z,78.23
2022-08-03T23:01:12.202Z,77.99
2022-08-03T23:04:00.129Z,78.33
2022-08-03T23:06:36.444Z,78.59
2022-08-03T23:09:13.321Z,78.72
2022-08-03T23:11:45.619Z,78.45
2022-08-03T23:14:17.446Z,78.24
2022-08-03T23:16:46.881Z,78.87
2022-08-03T23:19:25.005Z,78.75
2022-08-03T23:22:02.317Z,78.70
2022-08-03T23:24:38.729Z,79.05
2022-08-03T23:27:08.982Z,78.90
2022-08-03T23:29:38.839Z,78.95
2022-08-03T23:32:07.986Z,79.27
2022-08-03T23:34:59.797Z,79.52
2022-08-03T23:37:27.960Z,79.58
2022-08-03T23:39:58.433Z,79.65
2022-08-03T23:42:27.045Z,79.42
2022-08-03T23:44:59.463Z,79.64
2022-08-03T23:47:46.264Z,79.48
2022-08-03T23:50:16.000Z,79.73
2022-08-03T23:53:07.912Z,79.43
2022-08-03T23:55:50.856Z,79.51
2022-08-03T23:58:22.377Z,79.67
